Time;durP1;ratioP1;P1;durP2;ratioP2;P2;SDS_P1;SDS_P2;PMS_P1;PMS_P2;Temp;Humidity;BMP_temperature;BMP_pressure;BME280_temperature;BME280_humidity;BME280_pressure;Samples;Min_cycle;Max_cycle;Signal;HPM_P1;HPM_P2
2023/09/07 00:02:16;;;;;;;3.43;3.10;;;;;;;;;;4963312;28;20178;-80
2023/09/07 00:04:43;;;;;;;5.30;3.60;;;;;;;;;;4964257;28;20513;-80
2023/09/07 00:07:09;;;;;;;4.63;3.73;;;;;;;;;;4964198;28;20447;-79
2023/09/07 00:09:35;;;;;;;4.07;3.67;;;;;;;;;;4963349;28;20414;-80
2023/09/07 00:12:01;;;;;;;5.60;2.90;;;;;;;;;;4964769;28;20783;-79
2023/09/07 00:14:26;;;;;;;5.83;3.70;;;;;;;;;;4963306;28;20199;-79
2023/09/07 00:16:52;;;;;;;4.00;3.70;;;;;;;;;;4962335;28;20778;-81
2023/09/07 00:19:18;;;;;;;4.40;3.53;;;;;;;;;;4964322;28;20190;-81
2023/09/07 00:21:44;;;;;;;4.33;3.73;;;;;;;;;;4962950;28;20176;-82
2023/09/07 00:24:10;;;;;;;4.57;4.17;;;;;;;;;;4963662;28;20209;-81
2023/09/07 00:26:36;;;;;;;4.50;3.83;;;;;;;;;;4964362;28;20290;-81
2023/09/07 00:29:02;;;;;;;5.43;4.80;;;;;;;;;;4962660;28;20539;-80
2023/09/07 00:31:28;;;;;;;4.10;3.70;;;;;;;;;;4964100;28;20230;-81
2023/09/07 00:33:54;;;;;;;4.20;3.80;;;;;;;;;;4963680;28;20885;-80
2023/09/07 00:36:20;;;;;;;4.60;4.20;;;;;;;;;;4962333;28;20514;-80
2023/09/07 00:38:46;;;;;;;6.80;4.43;;;;;;;;;;4954339;28;20514;-80
2023/09/07 00:41:12;;;;;;;4.90;4.50;;;;;;;;;;4954389;28;20186;-80
2023/09/07 00:43:40;;;;;;;4.03;3.70;;;;;;;;;;4954392;28;20178;-80
2023/09/07 00:46:06;;;;;;;4.70;3.63;;;;;;;;;;4954305;28;20546;-80
2023/09/07 00:48:33;;;;;;;4.83;4.33;;;;;;;;;;4953973;28;20505;-80
2023/09/07 00:50:59;;;;;;;4.57;4.20;;;;;;;;;;4954334;28;20175;-80
2023/09/07 00:53:26;;;;;;;6.47;4.60;;;;;;;;;;4954326;28;20416;-80
2023/09/07 00:55:52;;;;;;;4.00;3.70;;;;;;;;;;4954081;28;21006;-80
2023/09/07 00:58:18;;;;;;;4.60;4.13;;;;;;;;;;4957661;29;20416;-79
2023/09/07 01:00:44;;;;;;;4.30;3.77;;;;;;;;;;4957670;29;20520;-80
2023/09/07 01:03:10;;;;;;;6.77;3.83;;;;;;;;;;4957318;28;20474;-80
2023/09/07 01:05:46;;;;;;;4.17;3.80;;;;;;;;;;4957554;29;20270;-78
2023/09/07 01:08:16;;;;;;;3.77;3.47;;;;;;;;;;4957457;28;20504;-81
2023/09/07 01:10:43;;;;;;;4.23;3.83;;;;;;;;;;4957486;28;20422;-81
2023/09/07 01:13:08;;;;;;;6.10;4.00;;;;;;;;;;4957384;28;20446;-81
2023/09/07 01:15:34;;;;;;;4.33;3.80;;;;;;;;;;4957448;28;20175;-81
2023/09/07 01:18:00;;;;;;;5.10;3.67;;;;;;;;;;4957140;28;20903;-82
2023/09/07 01:20:26;;;;;;;4.60;4.20;;;;;;;;;;4957337;28;20209;-82
2023/09/07 01:22:53;;;;;;;4.50;3.90;;;;;;;;;;4957305;28;20413;-81
2023/09/07 01:25:19;;;;;;;4.20;3.47;;;;;;;;;;4957095;28;20472;-81
2023/09/07 01:27:46;;;;;;;3.50;3.20;;;;;;;;;;4957138;28;20923;-81
2023/09/07 01:30:13;;;;;;;5.40;3.57;;;;;;;;;;4957135;28;20809;-81
2023/09/07 01:32:39;;;;;;;5.33;3.70;;;;;;;;;;4957117;28;20423;-82
2023/09/07 01:35:06;;;;;;;3.43;3.07;;;;;;;;;;4956744;29;20890;-82
2023/09/07 01:37:32;;;;;;;4.40;3.47;;;;;;;;;;4956981;28;20505;-82
2023/09/07 01:39:58;;;;;;;6.10;3.60;;;;;;;;;;4956921;28;20421;-81
2023/09/07 01:42:24;;;;;;;4.40;3.83;;;;;;;;;;4956855;28;20418;-82
2023/09/07 01:44:49;;;;;;;4.63;4.13;;;;;;;;;;4956823;28;20688;-81
2023/09/07 01:47:15;;;;;;;3.60;3.17;;;;;;;;;;4956832;28;20187;-82
2023/09/07 01:49:41;;;;;;;4.10;3.70;;;;;;;;;;4956522;28;20178;-78
2023/09/07 01:52:07;;;;;;;4.10;3.30;;;;;;;;;;4955490;28;20455;-78
2023/09/07 01:54:33;;;;;;;3.67;3.23;;;;;;;;;;4956540;28;20301;-78
2023/09/07 01:56:59;;;;;;;3.73;3.43;;;;;;;;;;4956660;28;20414;-78
2023/09/07 01:59:25;;;;;;;4.30;3.97;;;;;;;;;;4956606;29;20188;-78
2023/09/07 02:01:51;;;;;;;4.30;3.90;;;;;;;;;;4956606;28;20183;-78
2023/09/07 02:04:17;;;;;;;3.70;3.37;;;;;;;;;;4956227;28;20650;-78
2023/09/07 02:06:43;;;;;;;4.80;4.40;;;;;;;;;;4956435;28;20480;-79
2023/09/07 02:09:08;;;;;;;4.80;4.40;;;;;;;;;;4955572;28;20171;-80
2023/09/07 02:11:34;;;;;;;4.60;3.30;;;;;;;;;;4956463;28;20183;-79
2023/09/07 02:14:00;;;;;;;4.90;3.80;;;;;;;;;;4956361;28;20656;-79
2023/09/07 02:16:26;;;;;;;4.37;3.97;;;;;;;;;;4956384;28;20502;-79
2023/09/07 02:19:00;;;;;;;4.63;4.13;;;;;;;;;;4955986;28;20475;-79
2023/09/07 02:21:26;;;;;;;5.30;3.63;;;;;;;;;;4956237;28;20419;-79
2023/09/07 02:23:52;;;;;;;4.63;4.10;;;;;;;;;;4956096;28;20980;-80
2023/09/07 02:26:18;;;;;;;3.53;3.23;;;;;;;;;;4956033;28;20529;-80
2023/09/07 02:28:44;;;;;;;4.40;3.83;;;;;;;;;;4956139;28;20411;-80
2023/09/07 02:31:10;;;;;;;5.00;4.03;;;;;;;;;;4956114;29;20202;-80
2023/09/07 02:33:36;;;;;;;5.07;4.43;;;;;;;;;;4955715;29;20922;-80
2023/09/07 02:36:02;;;;;;;4.73;4.33;;;;;;;;;;4955932;29;20929;-80
2023/09/07 02:38:28;;;;;;;5.50;3.97;;;;;;;;;;4954659;28;20482;-79
2023/09/07 02:40:55;;;;;;;4.60;3.80;;;;;;;;;;4955836;28;20914;-79
2023/09/07 02:43:22;;;;;;;4.63;4.23;;;;;;;;;;4955794;28;20455;-79
2023/09/07 02:45:49;;;;;;;4.10;3.80;;;;;;;;;;4955673;28;20455;-79
2023/09/07 02:48:15;;;;;;;6.23;4.37;;;;;;;;;;4955342;28;20423;-80
2023/09/07 02:50:42;;;;;;;4.40;3.77;;;;;;;;;;4955599;29;20757;-80
2023/09/07 02:53:08;;;;;;;4.23;3.73;;;;;;;;;;4955642;28;20547;-80
2023/09/07 02:55:34;;;;;;;3.93;3.53;;;;;;;;;;4955409;28;20470;-80
2023/09/07 02:58:02;;;;;;;4.13;2.83;;;;;;;;;;4955564;29;20182;-79
2023/09/07 03:00:28;;;;;;;7.20;4.40;;;;;;;;;;4955501;28;20924;-79
2023/09/07 03:02:54;;;;;;;5.10;3.83;;;;;;;;;;4955114;29;20498;-79
2023/09/07 03:05:20;;;;;;;4.60;3.60;;;;;;;;;;4955317;28;20213;-79
2023/09/07 03:07:47;;;;;;;5.37;4.07;;;;;;;;;;4955374;28;20411;-79
2023/09/07 03:10:13;;;;;;;5.77;4.60;;;;;;;;;;4955362;28;20437;-79
2023/09/07 03:12:39;;;;;;;6.53;5.27;;;;;;;;;;4955357;28;20410;-79
2023/09/07 03:15:06;;;;;;;4.20;3.80;;;;;;;;;;4955265;28;20510;-79
2023/09/07 03:17:32;;;;;;;4.90;4.50;;;;;;;;;;4953987;28;20520;-79
2023/09/07 03:19:58;;;;;;;4.87;4.47;;;;;;;;;;4954703;28;20457;-79
2023/09/07 03:22:24;;;;;;;7.83;4.00;;;;;;;;;;4955180;29;20426;-78
2023/09/07 03:24:53;;;;;;;5.90;4.80;;;;;;;;;;4955446;28;20429;-79
2023/09/07 03:27:20;;;;;;;4.57;4.17;;;;;;;;;;4974365;28;20509;-78
2023/09/07 03:29:46;;;;;;;4.00;3.70;;;;;;;;;;4974243;28;20468;-80
2023/09/07 03:32:12;;;;;;;4.40;4.00;;;;;;;;;;4974195;28;20416;-80
2023/09/07 03:34:38;;;;;;;4.40;3.73;;;;;;;;;;4973942;28;20196;-78
2023/09/07 03:37:06;;;;;;;4.73;4.23;;;;;;;;;;4974348;28;20451;-80
2023/09/07 03:39:31;;;;;;;4.67;4.27;;;;;;;;;;4974273;28;20170;-80
2023/09/07 03:41:57;;;;;;;4.77;4.27;;;;;;;;;;4974303;28;20476;-81
2023/09/07 03:44:23;;;;;;;4.07;3.63;;;;;;;;;;4974196;28;20417;-79
2023/09/07 03:46:49;;;;;;;5.20;4.70;;;;;;;;;;4974179;28;20213;-79
2023/09/07 03:49:15;;;;;;;4.90;4.30;;;;;;;;;;4973925;28;20231;-79
2023/09/07 03:51:41;;;;;;;4.40;4.00;;;;;;;;;;4974159;28;20190;-80
2023/09/07 03:54:07;;;;;;;4.47;4.00;;;;;;;;;;4973972;28;20573;-79
2023/09/07 03:56:33;;;;;;;6.30;5.03;;;;;;;;;;4974121;28;20890;-79
2023/09/07 03:58:58;;;;;;;5.00;4.50;;;;;;;;;;4974035;28;20252;-79
2023/09/07 04:01:25;;;;;;;6.47;3.80;;;;;;;;;;4974247;28;20257;-79
2023/09/07 04:03:51;;;;;;;5.60;3.70;;;;;;;;;;4973717;28;20173;-79
2023/09/07 04:06:17;;;;;;;5.93;5.13;;;;;;;;;;4973868;28;20988;-79
2023/09/07 04:08:43;;;;;;;5.53;4.97;;;;;;;;;;4974000;28;20473;-80
2023/09/07 04:11:09;;;;;;;5.27;4.73;;;;;;;;;;4973993;28;20180;-81
2023/09/07 04:13:36;;;;;;;4.87;4.40;;;;;;;;;;4973904;28;20647;-81
2023/09/07 04:16:02;;;;;;;5.33;4.27;;;;;;;;;;4973860;28;20713;-81
2023/09/07 04:18:28;;;;;;;5.50;4.57;;;;;;;;;;4973578;28;20405;-81
2023/09/07 04:21:04;;;;;;;5.70;3.97;;;;;;;;;;4973894;28;20492;-82
2023/09/07 04:23:30;;;;;;;6.33;4.30;;;;;;;;;;4973926;28;20409;-80
2023/09/07 04:26:04;;;;;;;5.23;3.80;;;;;;;;;;4973634;28;20882;-79
2023/09/07 04:28:30;;;;;;;5.37;4.87;;;;;;;;;;4973793;28;20420;-81
2023/09/07 04:30:55;;;;;;;5.37;4.93;;;;;;;;;;4973850;28;20412;-79
2023/09/07 04:33:21;;;;;;;4.20;3.73;;;;;;;;;;4977077;28;20443;-78
2023/09/07 04:35:47;;;;;;;5.17;4.07;;;;;;;;;;4977489;28;20280;-79
2023/09/07 04:38:13;;;;;;;4.97;4.47;;;;;;;;;;4977317;28;20173;-79
2023/09/07 04:40:39;;;;;;;5.40;4.80;;;;;;;;;;4973972;28;20177;-79
2023/09/07 04:43:05;;;;;;;5.33;4.07;;;;;;;;;;4959528;28;20515;-79
2023/09/07 04:45:31;;;;;;;6.80;5.73;;;;;;;;;;4957914;28;20210;-79
2023/09/07 04:47:57;;;;;;;5.40;4.90;;;;;;;;;;4957547;28;20504;-82
2023/09/07 04:50:23;;;;;;;4.80;4.27;;;;;;;;;;4958664;28;20205;-81
2023/09/07 04:52:48;;;;;;;6.13;5.60;;;;;;;;;;4974842;28;20185;-81
2023/09/07 04:55:14;;;;;;;5.27;4.77;;;;;;;;;;4975653;28;20519;-81
2023/09/07 04:57:40;;;;;;;4.83;4.33;;;;;;;;;;4974743;28;20639;-81
2023/09/07 05:00:08;;;;;;;5.03;4.50;;;;;;;;;;4969705;28;20410;-80
2023/09/07 05:02:40;;;;;;;4.73;4.20;;;;;;;;;;4969154;28;20197;-80
2023/09/07 05:05:06;;;;;;;7.20;4.70;;;;;;;;;;4966179;28;20772;-80
2023/09/07 05:07:32;;;;;;;5.60;4.60;;;;;;;;;;4966510;28;20572;-79
2023/09/07 05:09:58;;;;;;;5.57;4.40;;;;;;;;;;4965033;28;20952;-79
2023/09/07 05:12:23;;;;;;;4.70;4.30;;;;;;;;;;4967500;28;20504;-80
2023/09/07 05:14:49;;;;;;;6.10;5.50;;;;;;;;;;4965973;28;20548;-82
2023/09/07 05:17:15;;;;;;;7.53;6.00;;;;;;;;;;4966469;28;20247;-81
2023/09/07 05:19:41;;;;;;;6.27;5.77;;;;;;;;;;4966993;28;20175;-81
2023/09/07 05:22:08;;;;;;;6.10;5.60;;;;;;;;;;4967347;28;20178;-81
2023/09/07 05:24:33;;;;;;;5.10;4.60;;;;;;;;;;4970176;28;20182;-81
2023/09/07 05:26:59;;;;;;;6.07;4.67;;;;;;;;;;4974990;28;20563;-80
2023/09/07 05:29:25;;;;;;;6.17;5.57;;;;;;;;;;4976384;28;20414;-80
2023/09/07 05:31:51;;;;;;;10.13;5.80;;;;;;;;;;4976321;28;20425;-80
2023/09/07 05:34:17;;;;;;;6.10;5.70;;;;;;;;;;4974848;28;20658;-80
2023/09/07 05:36:43;;;;;;;5.33;4.83;;;;;;;;;;4976402;28;20181;-80
2023/09/07 05:39:09;;;;;;;8.03;7.33;;;;;;;;;;4976334;28;20414;-80
2023/09/07 05:41:35;;;;;;;5.50;5.00;;;;;;;;;;4976135;28;20539;-80
2023/09/07 05:44:02;;;;;;;5.50;4.80;;;;;;;;;;4975006;28;20189;-80
2023/09/07 05:46:28;;;;;;;10.33;6.80;;;;;;;;;;4976006;28;20207;-79
2023/09/07 05:48:54;;;;;;;5.60;5.10;;;;;;;;;;4974473;28;20887;-79
2023/09/07 05:51:20;;;;;;;7.83;6.80;;;;;;;;;;4974754;28;20183;-80
2023/09/07 05:53:46;;;;;;;6.20;5.70;;;;;;;;;;4975678;28;20426;-79
2023/09/07 05:56:12;;;;;;;6.87;6.17;;;;;;;;;;4976097;28;20445;-79
2023/09/07 05:58:38;;;;;;;6.03;5.53;;;;;;;;;;4975241;28;20305;-80
2023/09/07 06:01:05;;;;;;;7.03;6.33;;;;;;;;;;4975792;28;20183;-80
2023/09/07 06:03:32;;;;;;;6.63;6.07;;;;;;;;;;4975484;28;20477;-79
2023/09/07 06:05:58;;;;;;;7.47;6.67;;;;;;;;;;4975660;28;20520;-78
2023/09/07 06:08:24;;;;;;;6.30;5.70;;;;;;;;;;4975617;28;20416;-78
2023/09/07 06:10:50;;;;;;;6.70;6.10;;;;;;;;;;4975727;28;20464;-79
2023/09/07 06:13:16;;;;;;;7.10;6.50;;;;;;;;;;4970013;28;20999;-79
2023/09/07 06:15:42;;;;;;;6.67;6.07;;;;;;;;;;4965953;28;20502;-80
2023/09/07 06:18:08;;;;;;;6.97;5.97;;;;;;;;;;4955759;28;20408;-79
2023/09/07 06:20:35;;;;;;;8.00;6.07;;;;;;;;;;4962758;28;20405;-79
2023/09/07 06:23:01;;;;;;;5.23;4.73;;;;;;;;;;4965571;28;20627;-76
2023/09/07 06:25:27;;;;;;;6.40;5.90;;;;;;;;;;4964206;28;20453;-77
2023/09/07 06:27:53;;;;;;;5.17;4.67;;;;;;;;;;4966267;28;20430;-78
2023/09/07 06:30:19;;;;;;;5.50;4.73;;;;;;;;;;4965075;28;20411;-79
2023/09/07 06:32:45;;;;;;;5.27;4.07;;;;;;;;;;4956479;28;20258;-79
2023/09/07 06:35:11;;;;;;;4.97;4.53;;;;;;;;;;4955966;28;20754;-78
2023/09/07 06:37:40;;;;;;;4.87;3.90;;;;;;;;;;4955912;28;20435;-82
2023/09/07 06:40:06;;;;;;;4.73;4.17;;;;;;;;;;4955868;28;20424;-82
2023/09/07 06:42:32;;;;;;;7.00;4.63;;;;;;;;;;4955724;28;20568;-78
2023/09/07 06:44:58;;;;;;;4.73;4.33;;;;;;;;;;4955721;28;20505;-80
2023/09/07 06:47:24;;;;;;;5.20;4.43;;;;;;;;;;4955468;28;20696;-80
2023/09/07 06:49:50;;;;;;;4.70;4.30;;;;;;;;;;4955652;28;20244;-78
2023/09/07 06:52:16;;;;;;;4.37;4.00;;;;;;;;;;4954429;28;20428;-78
2023/09/07 06:54:42;;;;;;;4.47;4.13;;;;;;;;;;4955072;28;20224;-78
2023/09/07 06:57:08;;;;;;;4.40;3.57;;;;;;;;;;4955597;28;20627;-78
2023/09/07 06:59:35;;;;;;;3.80;3.50;;;;;;;;;;4955637;28;20188;-79
2023/09/07 07:02:01;;;;;;;4.93;4.17;;;;;;;;;;4955238;28;20467;-79
2023/09/07 07:04:26;;;;;;;4.27;3.87;;;;;;;;;;4955526;28;20413;-78
2023/09/07 07:06:53;;;;;;;3.80;3.47;;;;;;;;;;4955329;28;20580;-78
2023/09/07 07:09:19;;;;;;;4.70;4.30;;;;;;;;;;4955276;29;20630;-79
2023/09/07 07:11:45;;;;;;;3.97;3.67;;;;;;;;;;4955335;29;20421;-78
2023/09/07 07:14:11;;;;;;;6.70;4.50;;;;;;;;;;4955317;28;20500;-78
2023/09/07 07:16:37;;;;;;;4.70;4.30;;;;;;;;;;4955284;28;20215;-78
2023/09/07 07:19:03;;;;;;;4.77;3.60;;;;;;;;;;4959889;28;20425;-78
2023/09/07 07:21:29;;;;;;;5.50;4.17;;;;;;;;;;4955062;28;20504;-78
2023/09/07 07:23:55;;;;;;;5.80;4.47;;;;;;;;;;4963733;28;20347;-79
2023/09/07 07:26:21;;;;;;;7.77;4.40;;;;;;;;;;4963815;28;20216;-78
2023/09/07 07:28:47;;;;;;;9.40;7.73;;;;;;;;;;4964745;28;20181;-79
2023/09/07 07:31:13;;;;;;;4.77;4.00;;;;;;;;;;4961574;28;20413;-78
2023/09/07 07:33:39;;;;;;;5.23;4.73;;;;;;;;;;4962052;28;20173;-79
2023/09/07 07:36:05;;;;;;;4.43;4.07;;;;;;;;;;4965161;28;20720;-79
2023/09/07 07:38:31;;;;;;;5.03;4.63;;;;;;;;;;4970450;28;20267;-79
2023/09/07 07:40:57;;;;;;;4.70;3.67;;;;;;;;;;4974239;28;20987;-78
2023/09/07 07:43:23;;;;;;;4.73;4.27;;;;;;;;;;4973144;28;20259;-78
2023/09/07 07:45:49;;;;;;;4.30;3.90;;;;;;;;;;4974123;28;20315;-79
2023/09/07 07:48:15;;;;;;;5.00;3.90;;;;;;;;;;4973855;28;20435;-77
2023/09/07 07:50:41;;;;;;;4.47;4.07;;;;;;;;;;4974123;28;20173;-78
2023/09/07 07:53:07;;;;;;;3.90;3.60;;;;;;;;;;4974129;28;20412;-80
2023/09/07 07:55:38;;;;;;;4.60;4.20;;;;;;;;;;4973945;28;20467;-77
2023/09/07 07:58:04;;;;;;;4.17;3.77;;;;;;;;;;4972896;28;20470;-77
2023/09/07 08:00:31;;;;;;;4.30;4.00;;;;;;;;;;4974042;28;20451;-77
2023/09/07 08:02:57;;;;;;;4.20;3.80;;;;;;;;;;4973706;28;20180;-78
2023/09/07 08:05:23;;;;;;;4.13;3.83;;;;;;;;;;4973976;28;21091;-77
2023/09/07 08:07:48;;;;;;;6.47;3.87;;;;;;;;;;4977063;28;20461;-77
2023/09/07 08:10:14;;;;;;;3.37;3.07;;;;;;;;;;4977844;28;20223;-77
2023/09/07 08:12:40;;;;;;;4.70;4.37;;;;;;;;;;4977851;28;20187;-77
2023/09/07 08:15:06;;;;;;;4.17;3.87;;;;;;;;;;4977842;28;20422;-78
2023/09/07 08:17:32;;;;;;;4.00;3.60;;;;;;;;;;4977556;28;20191;-78
2023/09/07 08:19:58;;;;;;;4.83;4.53;;;;;;;;;;4977776;28;20415;-79
2023/09/07 08:22:24;;;;;;;3.57;3.37;;;;;;;;;;4976300;28;20633;-81
2023/09/07 08:24:51;;;;;;;5.10;3.93;;;;;;;;;;4977579;28;20199;-79
2023/09/07 08:27:18;;;;;;;5.97;3.80;;;;;;;;;;4977596;28;20172;-79
2023/09/07 08:29:48;;;;;;;4.83;4.10;;;;;;;;;;4977576;28;20424;-78
2023/09/07 08:32:14;;;;;;;4.70;4.40;;;;;;;;;;4977229;28;20416;-82
2023/09/07 08:34:41;;;;;;;4.00;3.67;;;;;;;;;;4977450;28;20866;-82
2023/09/07 08:37:10;;;;;;;4.60;4.13;;;;;;;;;;4977320;28;20995;-79
2023/09/07 08:39:36;;;;;;;4.37;3.97;;;;;;;;;;4974594;28;20504;-79
2023/09/07 08:42:04;;;;;;;4.27;3.97;;;;;;;;;;4968086;28;20466;-79
2023/09/07 08:44:30;;;;;;;3.77;3.47;;;;;;;;;;4975470;28;20548;-80
2023/09/07 08:46:56;;;;;;;4.70;4.40;;;;;;;;;;4976682;28;20422;-80
2023/09/07 08:49:23;;;;;;;6.97;4.73;;;;;;;;;;4976879;28;20404;-79
2023/09/07 08:51:49;;;;;;;4.47;3.60;;;;;;;;;;4975947;28;20474;-79
2023/09/07 08:54:15;;;;;;;4.50;4.10;;;;;;;;;;4976978;28;20567;-80
2023/09/07 08:56:41;;;;;;;4.47;3.90;;;;;;;;;;4976946;28;20561;-80
2023/09/07 08:59:06;;;;;;;4.00;3.70;;;;;;;;;;4977080;28;20204;-80
2023/09/07 09:01:32;;;;;;;4.63;4.23;;;;;;;;;;4976942;28;20636;-80
2023/09/07 09:03:58;;;;;;;4.40;3.63;;;;;;;;;;4976615;28;20641;-80
2023/09/07 09:06:25;;;;;;;4.20;3.80;;;;;;;;;;4976936;28;20172;-80
2023/09/07 09:08:52;;;;;;;3.77;3.57;;;;;;;;;;4976846;28;20420;-81
2023/09/07 09:11:18;;;;;;;6.43;4.00;;;;;;;;;;4975837;28;20782;-80
2023/09/07 09:13:44;;;;;;;4.67;4.37;;;;;;;;;;4976842;28;20416;-81
2023/09/07 09:16:11;;;;;;;5.17;4.53;;;;;;;;;;4976564;28;20506;-81
2023/09/07 09:18:37;;;;;;;3.73;3.40;;;;;;;;;;4969378;28;20580;-80
2023/09/07 09:21:05;;;;;;;4.30;3.90;;;;;;;;;;4974120;28;20466;-80
2023/09/07 09:23:32;;;;;;;6.10;4.30;;;;;;;;;;4975566;28;20415;-81
2023/09/07 09:25:59;;;;;;;4.10;3.80;;;;;;;;;;4975323;28;20416;-80
2023/09/07 09:28:27;;;;;;;4.23;3.80;;;;;;;;;;4975293;28;20443;-78
2023/09/07 09:30:53;;;;;;;5.07;3.63;;;;;;;;;;4975511;28;20420;-78
2023/09/07 09:33:21;;;;;;;4.43;3.90;;;;;;;;;;4973922;28;20428;-81
2023/09/07 09:35:48;;;;;;;3.83;3.40;;;;;;;;;;4975427;28;20207;-79
2023/09/07 09:38:13;;;;;;;3.17;2.83;;;;;;;;;;4975270;28;20457;-80
2023/09/07 09:40:40;;;;;;;4.33;4.03;;;;;;;;;;4975794;28;20860;-79
2023/09/07 09:43:06;;;;;;;4.43;3.50;;;;;;;;;;4976180;28;20668;-79
2023/09/07 09:45:32;;;;;;;4.33;3.80;;;;;;;;;;4973459;28;20420;-81
2023/09/07 09:48:01;;;;;;;4.43;4.03;;;;;;;;;;4970307;28;21022;-80
2023/09/07 09:50:28;;;;;;;4.13;3.73;;;;;;;;;;4975031;28;20419;-80
2023/09/07 09:52:54;;;;;;;4.13;3.83;;;;;;;;;;4974512;28;20408;-79
2023/09/07 09:55:20;;;;;;;3.80;3.17;;;;;;;;;;4974501;28;20471;-80
2023/09/07 09:57:46;;;;;;;5.80;3.37;;;;;;;;;;4973999;28;20430;-82
2023/09/07 10:02:49;;;;;;;4.90;3.30;;;;;;;;;;4974448;28;20199;-81
2023/09/07 10:05:15;;;;;;;4.50;3.57;;;;;;;;;;4974820;28;20422;-81
2023/09/07 10:07:44;;;;;;;4.43;4.00;;;;;;;;;;4974702;28;20423;-81
2023/09/07 10:10:14;;;;;;;3.20;3.00;;;;;;;;;;4974738;28;20415;-83
2023/09/07 10:12:41;;;;;;;3.53;3.00;;;;;;;;;;4974696;28;20822;-80
2023/09/07 10:15:07;;;;;;;3.80;3.50;;;;;;;;;;4974551;28;20404;-81
2023/09/07 10:17:33;;;;;;;4.30;3.60;;;;;;;;;;4974681;28;20427;-84
2023/09/07 10:20:05;;;;;;;5.07;3.43;;;;;;;;;;4974549;28;20407;-80
2023/09/07 10:22:31;;;;;;;4.00;3.57;;;;;;;;;;4974520;28;20219;-80
2023/09/07 10:25:00;;;;;;;3.27;3.07;;;;;;;;;;4974512;28;20451;-82
2023/09/07 10:27:36;;;;;;;3.43;2.90;;;;;;;;;;4974459;28;20179;-80
2023/09/07 10:30:09;;;;;;;3.90;3.43;;;;;;;;;;4973747;28;20411;-80
2023/09/07 10:32:41;;;;;;;3.47;3.27;;;;;;;;;;4972762;28;20435;-83
2023/09/07 10:35:18;;;;;;;3.10;2.70;;;;;;;;;;4974182;28;20415;-80
2023/09/07 10:37:46;;;;;;;4.90;2.87;;;;;;;;;;4972982;28;20916;-80
2023/09/07 10:40:12;;;;;;;5.90;3.10;;;;;;;;;;4974276;28;20414;-80
2023/09/07 10:42:38;;;;;;;4.80;3.03;;;;;;;;;;4974244;28;20772;-79
2023/09/07 10:45:16;;;;;;;3.90;2.60;;;;;;;;;;4972873;28;20169;-79
2023/09/07 10:47:45;;;;;;;3.80;3.33;;;;;;;;;;4973522;28;20419;-81
2023/09/07 10:50:12;;;;;;;3.60;3.20;;;;;;;;;;4958489;28;20412;-84
2023/09/07 10:52:39;;;;;;;4.00;3.10;;;;;;;;;;4973952;28;20514;-82
2023/09/07 10:55:05;;;;;;;3.73;3.33;;;;;;;;;;4974028;28;20531;-86
2023/09/07 10:57:31;;;;;;;3.70;3.30;;;;;;;;;;4973967;28;20455;-80
2023/09/07 10:59:57;;;;;;;3.67;3.30;;;;;;;;;;4973895;28;20444;-79
2023/09/07 11:02:23;;;;;;;3.77;3.33;;;;;;;;;;4973424;28;20542;-79
2023/09/07 11:04:49;;;;;;;5.33;3.40;;;;;;;;;;4973757;28;20176;-78
2023/09/07 11:07:15;;;;;;;3.97;3.60;;;;;;;;;;4973636;28;20184;-77
2023/09/07 11:09:41;;;;;;;3.80;3.30;;;;;;;;;;4973692;28;20183;-86
2023/09/07 11:12:08;;;;;;;3.93;3.20;;;;;;;;;;4973014;28;20428;-81
2023/09/07 11:14:34;;;;;;;4.17;3.87;;;;;;;;;;4972566;28;20428;-80
2023/09/07 11:17:03;;;;;;;3.40;3.10;;;;;;;;;;4972035;28;20483;-89
2023/09/07 11:19:31;;;;;;;7.60;3.90;;;;;;;;;;4973605;28;20412;-81
2023/09/07 11:21:57;;;;;;;3.57;2.93;;;;;;;;;;4973481;28;20422;-83
2023/09/07 11:24:24;;;;;;;5.53;3.67;;;;;;;;;;4973470;28;20498;-80
2023/09/07 11:26:50;;;;;;;4.53;3.40;;;;;;;;;;4973503;28;20164;-81
2023/09/07 11:29:16;;;;;;;3.37;2.60;;;;;;;;;;4973669;28;20506;-78
2023/09/07 11:31:42;;;;;;;4.60;3.27;;;;;;;;;;4973091;28;20176;-80
2023/09/07 11:34:12;;;;;;;3.93;3.40;;;;;;;;;;4973388;28;20550;-83
2023/09/07 11:36:38;;;;;;;3.73;3.43;;;;;;;;;;4972930;28;20494;-78
2023/09/07 11:39:11;;;;;;;3.00;2.80;;;;;;;;;;4973157;28;20884;-85
2023/09/07 11:41:37;;;;;;;4.33;3.50;;;;;;;;;;4973208;28;20172;-88
2023/09/07 11:44:03;;;;;;;3.47;3.17;;;;;;;;;;4972363;28;20829;-80
2023/09/07 11:46:30;;;;;;;4.20;3.90;;;;;;;;;;4973255;28;20179;-85
2023/09/07 11:48:56;;;;;;;3.07;2.80;;;;;;;;;;4973302;28;20510;-85
2023/09/07 11:51:22;;;;;;;3.70;3.40;;;;;;;;;;4972162;28;20451;-81
2023/09/07 11:53:49;;;;;;;3.10;2.90;;;;;;;;;;4972992;28;20255;-83
2023/09/07 11:56:15;;;;;;;2.97;2.60;;;;;;;;;;4973106;28;20263;-84
2023/09/07 11:58:43;;;;;;;3.50;3.20;;;;;;;;;;4972797;28;20412;-79
2023/09/07 12:01:09;;;;;;;3.23;3.03;;;;;;;;;;4973006;28;20416;-77
2023/09/07 12:03:35;;;;;;;3.87;3.17;;;;;;;;;;4972985;28;20408;-83
2023/09/07 12:06:01;;;;;;;3.07;2.67;;;;;;;;;;4973340;28;20208;-82
2023/09/07 12:08:27;;;;;;;4.40;2.90;;;;;;;;;;4972944;28;20187;-77
2023/09/07 12:10:53;;;;;;;3.20;3.00;;;;;;;;;;4973051;28;20426;-79
2023/09/07 12:13:19;;;;;;;3.63;2.97;;;;;;;;;;4972911;28;20630;-78
2023/09/07 12:15:45;;;;;;;3.53;3.20;;;;;;;;;;4973043;28;20741;-77
2023/09/07 12:18:11;;;;;;;3.80;3.50;;;;;;;;;;4972564;28;20195;-80
2023/09/07 12:20:37;;;;;;;5.10;3.20;;;;;;;;;;4973000;28;20188;-77
2023/09/07 12:23:03;;;;;;;3.13;2.87;;;;;;;;;;4972796;28;20207;-76
2023/09/07 12:25:29;;;;;;;2.97;2.73;;;;;;;;;;4972768;28;20439;-77
2023/09/07 12:27:56;;;;;;;3.30;3.00;;;;;;;;;;4972739;28;20492;-77
2023/09/07 12:30:24;;;;;;;4.33;3.23;;;;;;;;;;4972898;28;20169;-78
2023/09/07 12:32:50;;;;;;;12.07;4.00;;;;;;;;;;4972362;28;20415;-78
2023/09/07 12:35:16;;;;;;;3.63;3.33;;;;;;;;;;4972472;28;20897;-77
2023/09/07 12:37:42;;;;;;;4.00;3.30;;;;;;;;;;4972691;28;20414;-77
2023/09/07 12:40:12;;;;;;;3.60;3.30;;;;;;;;;;4971434;28;20423;-76
2023/09/07 12:42:42;;;;;;;3.73;3.23;;;;;;;;;;4964374;28;20460;-77
2023/09/07 12:45:09;;;;;;;3.70;3.40;;;;;;;;;;4973176;28;20908;-77
2023/09/07 12:47:35;;;;;;;3.80;3.50;;;;;;;;;;4972552;28;20435;-77
2023/09/07 12:50:01;;;;;;;4.30;3.90;;;;;;;;;;4972861;28;20439;-76
2023/09/07 12:52:28;;;;;;;4.00;3.70;;;;;;;;;;4973784;28;20404;-77
2023/09/07 12:54:54;;;;;;;4.80;3.40;;;;;;;;;;4971949;28;20234;-76
2023/09/07 12:57:29;;;;;;;3.20;3.00;;;;;;;;;;4957183;28;20567;-75
2023/09/07 12:59:55;;;;;;;3.27;3.07;;;;;;;;;;4957332;28;20173;-79
2023/09/07 13:02:21;;;;;;;4.23;3.33;;;;;;;;;;4956874;28;20467;-76
2023/09/07 13:04:47;;;;;;;4.33;2.97;;;;;;;;;;4956070;28;20905;-76
2023/09/07 13:07:13;;;;;;;4.70;3.60;;;;;;;;;;4957160;28;20173;-77
2023/09/07 13:09:39;;;;;;;3.90;3.03;;;;;;;;;;4971681;28;20575;-75
2023/09/07 13:12:05;;;;;;;4.10;3.10;;;;;;;;;;4957033;29;20177;-76
2023/09/07 13:14:31;;;;;;;4.23;3.77;;;;;;;;;;4956793;28;20545;-78
2023/09/07 13:16:57;;;;;;;3.97;2.33;;;;;;;;;;4956520;28;20476;-76
2023/09/07 13:19:23;;;;;;;4.00;3.30;;;;;;;;;;4956870;28;20173;-77
2023/09/07 13:21:49;;;;;;;3.60;3.07;;;;;;;;;;4956918;28;20552;-77
2023/09/07 13:24:15;;;;;;;3.50;3.30;;;;;;;;;;4956806;28;20277;-77
2023/09/07 13:26:41;;;;;;;3.67;2.80;;;;;;;;;;4956846;28;20229;-76
2023/09/07 13:29:07;;;;;;;5.47;4.00;;;;;;;;;;4971560;28;20185;-76
2023/09/07 13:31:33;;;;;;;3.67;3.07;;;;;;;;;;4956394;28;20417;-77
2023/09/07 13:33:59;;;;;;;3.00;2.70;;;;;;;;;;4956795;28;20417;-77
2023/09/07 13:36:25;;;;;;;6.73;3.20;;;;;;;;;;4971360;28;20547;-78
2023/09/07 13:38:51;;;;;;;4.97;3.53;;;;;;;;;;4948204;28;20189;-82
2023/09/07 13:41:16;;;;;;;5.13;3.20;;;;;;;;;;4954214;29;20227;-91
2023/09/07 13:43:42;;;;;;;3.50;2.87;;;;;;;;;;4955609;29;20174;-81
2023/09/07 13:46:08;;;;;;;3.73;2.87;;;;;;;;;;4955695;28;20232;-80
2023/09/07 13:48:34;;;;;;;4.50;3.27;;;;;;;;;;4956064;28;20522;-82
2023/09/07 13:51:00;;;;;;;2.63;2.30;;;;;;;;;;4971071;28;20181;-81
2023/09/07 13:53:26;;;;;;;7.20;3.50;;;;;;;;;;4971140;28;20240;-79
2023/09/07 13:55:52;;;;;;;3.40;2.67;;;;;;;;;;4974905;28;20314;-80
2023/09/07 13:58:18;;;;;;;5.20;3.27;;;;;;;;;;4974415;28;20263;-79
2023/09/07 14:00:46;;;;;;;4.43;3.00;;;;;;;;;;4975483;28;20168;-81
2023/09/07 14:03:12;;;;;;;5.20;3.27;;;;;;;;;;4974932;28;20420;-81
2023/09/07 14:05:38;;;;;;;3.27;2.97;;;;;;;;;;4974379;28;20786;-81
2023/09/07 14:08:04;;;;;;;3.60;2.70;;;;;;;;;;4973964;28;20188;-83
2023/09/07 14:10:30;;;;;;;4.73;3.20;;;;;;;;;;4975261;28;20200;-82
2023/09/07 14:12:56;;;;;;;5.07;3.00;;;;;;;;;;4975420;28;20459;-79
2023/09/07 14:15:24;;;;;;;2.10;1.87;;;;;;;;;;4974955;28;20456;-81
2023/09/07 14:17:50;;;;;;;3.50;2.30;;;;;;;;;;4974646;28;20184;-81
2023/09/07 14:20:16;;;;;;;4.57;2.53;;;;;;;;;;4975020;28;20416;-78
2023/09/07 14:22:42;;;;;;;2.80;2.50;;;;;;;;;;4973729;28;20181;-77
2023/09/07 14:25:08;;;;;;;3.60;2.80;;;;;;;;;;4973598;28;20427;-78
2023/09/07 14:27:34;;;;;;;3.43;3.00;;;;;;;;;;4974667;28;20443;-79
2023/09/07 14:30:00;;;;;;;4.10;3.47;;;;;;;;;;4974585;28;20420;-80
2023/09/07 14:32:26;;;;;;;2.70;2.43;;;;;;;;;;4974571;28;20242;-81
2023/09/07 14:34:52;;;;;;;3.23;2.93;;;;;;;;;;4974609;28;20407;-80
2023/09/07 14:37:18;;;;;;;4.73;3.20;;;;;;;;;;4974828;28;20820;-84
2023/09/07 14:39:47;;;;;;;3.67;2.63;;;;;;;;;;4974531;28;20176;-80
2023/09/07 14:42:16;;;;;;;5.47;3.07;;;;;;;;;;4974653;28;20172;-83